Time;durP1;ratioP1;P1;durP2;ratioP2;P2;SDS_P1;SDS_P2;PMS_P1;PMS_P2;Temp;Humidity;BMP_temperature;BMP_pressure;BME280_temperature;BME280_humidity;BME280_pressure;Samples;Min_cycle;Max_cycle;Signal;HPM_P1;HPM_P2
2022/09/17 00:01:56;;;;;;;3.88;2.83;;;;;;;22.96;62.00;98707.03;5040213;28;20060;-82
2022/09/17 00:04:21;;;;;;;1.45;1.38;;;;;;;22.81;63.17;98729.78;5042766;28;20024;-83
2022/09/17 00:06:47;;;;;;;1.48;1.38;;;;;;;22.63;63.55;98681.06;5050118;28;20117;-81
2022/09/17 00:09:12;;;;;;;0.93;0.90;;;;;;;22.59;64.59;98717.22;5026550;28;20049;-82
2022/09/17 00:11:40;;;;;;;4.28;1.05;;;;;;;22.78;64.27;98727.34;5047222;28;20445;-83
2022/09/17 00:14:08;;;;;;;1.08;0.68;;;;;;;22.77;64.41;98723.81;5043941;28;20035;-82
2022/09/17 00:16:40;;;;;;;2.45;1.05;;;;;;;22.53;64.62;98694.38;5032761;28;20589;-82
2022/09/17 00:19:11;;;;;;;1.40;1.30;;;;;;;22.70;64.48;98718.06;5036754;28;20084;-82
2022/09/17 00:21:36;;;;;;;1.08;1.00;;;;;;;22.58;64.37;98688.63;5048074;28;20025;-83
2022/09/17 00:24:04;;;;;;;2.65;2.45;;;;;;;22.73;64.89;98726.88;5044139;28;20036;-81
2022/09/17 00:26:31;;;;;;;1.17;1.08;;;;;;;22.62;64.15;98696.31;5034151;28;20091;-82
2022/09/17 00:28:58;;;;;;;2.17;1.92;;;;;;;22.74;63.34;98709.75;5037623;28;20102;-83
2022/09/17 00:31:24;;;;;;;2.30;1.58;;;;;;;22.59;63.12;98693.88;5048267;28;20051;-82
2022/09/17 00:33:51;;;;;;;4.03;2.00;;;;;;;22.79;62.61;98715.63;5047660;28;20033;-82
2022/09/17 00:36:19;;;;;;;1.80;1.65;;;;;;;22.77;62.20;98712.19;5035716;28;20614;-83
2022/09/17 00:38:52;;;;;;;2.30;1.35;;;;;;;22.57;63.24;98701.22;5035623;28;20037;-82
2022/09/17 00:41:19;;;;;;;2.63;1.67;;;;;;;22.51;63.32;98691.81;5035518;28;20033;-82
2022/09/17 00:43:56;;;;;;;2.72;2.08;;;;;;;22.50;63.63;98703.53;5042935;28;20087;-81
2022/09/17 00:46:29;;;;;;;0.77;0.77;;;;;;;22.60;63.57;98727.84;5034999;28;20029;-84
2022/09/17 00:48:58;;;;;;;15.77;1.70;;;;;;;22.43;63.94;98713.09;5036740;28;20041;-82
2022/09/17 00:51:34;;;;;;;3.30;1.48;;;;;;;22.46;63.50;98728.97;5050233;28;20457;-82
2022/09/17 00:54:02;;;;;;;3.35;2.20;;;;;;;22.39;63.76;98730.41;5043803;28;20039;-82
2022/09/17 00:56:32;;;;;;;2.47;1.60;;;;;;;22.39;64.16;98738.47;5034252;28;20026;-82
2022/09/17 00:59:00;;;;;;;7.35;2.25;;;;;;;22.17;64.01;98705.22;5030471;28;20060;-82
2022/09/17 01:01:26;;;;;;;1.67;1.58;;;;;;;22.32;63.49;98703.19;5030590;28;20468;-82
2022/09/17 01:03:51;;;;;;;1.33;1.23;;;;;;;22.29;64.14;98718.66;5048780;28;20120;-82
2022/09/17 01:06:38;;;;;;;1.65;1.55;;;;;;;22.21;64.57;98726.47;5049847;28;20029;-81
2022/09/17 01:09:22;;;;;;;0.85;0.63;;;;;;;22.21;64.57;98732.69;5050151;28;20037;-81
2022/09/17 01:12:05;;;;;;;3.42;2.53;;;;;;;22.22;64.56;98733.56;5050369;28;20025;-81
2022/09/17 01:14:46;;;;;;;2.88;1.48;;;;;;;22.15;64.45;98728.66;5050021;28;20041;-82
2022/09/17 01:17:17;;;;;;;8.40;1.98;;;;;;;22.02;65.08;98733.25;5050385;28;20044;-81
2022/09/17 01:19:58;;;;;;;1.27;0.95;;;;;;;21.90;65.71;98729.69;5032333;28;20499;-81
2022/09/17 01:22:23;;;;;;;4.25;2.33;;;;;;;21.78;66.05;98727.94;5032599;28;20403;-81
2022/09/17 01:25:10;;;;;;;1.65;1.50;;;;;;;21.67;65.78;98719.88;5049478;28;20039;-82
2022/09/17 01:27:57;;;;;;;0.90;0.88;;;;;;;21.46;65.97;98721.34;5050728;28;20025;-81
2022/09/17 01:30:50;;;;;;;1.70;1.08;;;;;;;21.28;66.26;98728.09;5053830;28;20166;-81
2022/09/17 01:33:33;;;;;;;3.47;3.17;;;;;;;21.09;67.13;98728.63;5053408;28;20072;-81
2022/09/17 01:36:13;;;;;;;0.25;0.25;;;;;;;21.03;67.30;98713.84;5053339;28;20474;-81
2022/09/17 01:39:01;;;;;;;1.13;1.00;;;;;;;20.96;67.01;98704.56;5053781;28;20063;-81
2022/09/17 01:41:46;;;;;;;1.20;1.10;;;;;;;20.88;67.21;98702.44;5053311;28;20032;-82
2022/09/17 01:44:21;;;;;;;;;;;;;;;20.92;67.55;98728.03;5053400;28;20035;-82
2022/09/17 01:46:55;;;;;;;3.20;2.10;;;;;;;20.99;67.01;98707.00;5053401;28;19948;-81
2022/09/17 01:49:24;;;;;;;3.92;2.38;;;;;;;21.08;66.62;98692.91;5053639;28;20041;-81
2022/09/17 01:51:52;;;;;;;0.75;0.75;;;;;;;21.16;66.57;98697.69;5053057;28;20139;-82
2022/09/17 01:54:22;;;;;;;3.05;1.48;;;;;;;21.28;66.96;98717.38;5053125;28;20147;-81
2022/09/17 01:56:57;;;;;;;3.70;1.10;;;;;;;21.32;66.37;98705.47;5053088;28;20121;-81
2022/09/17 01:59:35;;;;;;;6.43;1.60;;;;;;;21.03;67.30;98711.16;5053556;28;20102;-81
2022/09/17 02:02:28;;;;;;;0.85;0.73;;;;;;;21.13;67.04;98714.00;5052917;28;20057;-81
2022/09/17 02:05:19;;;;;;;1.75;1.60;;;;;;;21.20;66.97;98711.75;5044717;28;20130;-81
2022/09/17 02:07:53;;;;;;;1.40;1.27;;;;;;;20.93;67.01;98684.19;5030229;28;20100;-81
2022/09/17 02:10:30;;;;;;;10.13;1.05;;;;;;;20.90;67.33;98675.53;5031456;28;20431;-81
2022/09/17 02:13:01;;;;;;;2.08;1.20;;;;;;;21.06;67.36;98705.56;5052851;28;20032;-81
2022/09/17 02:15:35;;;;;;;3.30;0.93;;;;;;;20.91;67.45;98691.50;5051654;28;20036;-81
2022/09/17 02:18:32;;;;;;;2.03;1.77;;;;;;;20.79;68.06;98707.59;5052659;28;20491;-82
2022/09/17 02:21:10;;;;;;;2.60;1.48;;;;;;;20.66;67.81;98710.31;5052652;28;20045;-82
2022/09/17 02:23:48;;;;;;;3.20;1.05;;;;;;;20.52;67.97;98689.84;5052159;28;20115;-82
2022/09/17 02:26:18;;;;;;;6.65;1.35;;;;;;;20.64;68.13;98702.34;5052667;28;20021;-82
2022/09/17 02:28:56;;;;;;;2.47;1.17;;;;;;;20.74;67.70;98703.44;5052298;28;20027;-82
2022/09/17 02:31:21;;;;;;;0.95;0.88;;;;;;;20.38;68.42;98677.44;5052425;28;20029;-82
2022/09/17 02:33:53;;;;;;;0.90;0.90;;;;;;;20.35;69.05;98691.06;5052341;28;20025;-81
2022/09/17 02:36:19;;;;;;;0.28;0.28;;;;;;;20.50;68.86;98687.28;5052354;28;20032;-82
2022/09/17 02:38:45;;;;;;;2.05;0.95;;;;;;;20.32;68.99;98640.41;5052104;28;20083;-82
2022/09/17 02:41:22;;;;;;;2.40;1.33;;;;;;;20.52;69.03;98684.50;5051715;28;20552;-81
2022/09/17 02:43:59;;;;;;;1.13;0.98;;;;;;;20.51;68.73;98683.66;5051921;28;20495;-82
2022/09/17 02:46:33;;;;;;;3.65;2.00;;;;;;;20.53;68.96;98681.69;5052375;28;20394;-82
2022/09/17 02:49:09;;;;;;;1.77;1.67;;;;;;;20.09;70.35;98672.34;5052165;28;20059;-81
2022/09/17 02:51:59;;;;;;;2.20;2.00;;;;;;;20.27;69.57;98669.34;5051999;28;20040;-81
2022/09/17 02:54:29;;;;;;;5.00;1.55;;;;;;;20.29;70.04;98662.03;5052016;28;20025;-81
2022/09/17 02:57:12;;;;;;;1.17;1.08;;;;;;;20.05;70.38;98660.16;5051995;28;20518;-82
2022/09/17 02:59:56;;;;;;;1.75;1.40;;;;;;;19.96;71.13;98663.47;5052181;28;20090;-81
2022/09/17 03:02:25;;;;;;;1.25;0.80;;;;;;;20.05;71.12;98649.44;5051531;28;20567;-82
2022/09/17 03:04:51;;;;;;;2.67;2.00;;;;;;;20.15;71.51;98653.16;5051961;28;20033;-81
2022/09/17 03:07:19;;;;;;;1.45;1.27;;;;;;;20.10;71.04;98631.22;5051824;28;20033;-81
2022/09/17 03:09:44;;;;;;;0.60;0.52;;;;;;;20.14;70.88;98638.09;5051161;28;20401;-82
2022/09/17 03:12:11;;;;;;;1.38;1.27;;;;;;;20.21;71.20;98674.13;5051400;28;20036;-81
2022/09/17 03:14:36;;;;;;;1.45;1.02;;;;;;;20.04;71.24;98616.44;5051293;28;20089;-81
2022/09/17 03:17:02;;;;;;;2.92;2.47;;;;;;;20.27;71.70;98638.06;5051904;28;20025;-82
2022/09/17 03:19:28;;;;;;;0.65;0.65;;;;;;;20.24;71.20;98624.03;5051084;28;20553;-81
2022/09/17 03:21:53;;;;;;;0.73;0.70;;;;;;;20.00;71.80;98609.63;5051818;28;20040;-81
2022/09/17 03:24:19;;;;;;;5.57;2.28;;;;;;;20.00;71.70;98601.59;5051435;28;20036;-81
2022/09/17 03:26:46;;;;;;;3.72;3.08;;;;;;;20.11;71.38;98610.66;5050648;28;20511;-82
2022/09/17 03:29:12;;;;;;;4.47;2.35;;;;;;;19.99;72.03;98623.13;5051105;28;20024;-82
2022/09/17 03:31:37;;;;;;;2.03;1.83;;;;;;;19.92;71.47;98609.28;5051828;28;20029;-81
2022/09/17 03:34:03;;;;;;;1.90;1.63;;;;;;;20.20;71.35;98634.09;5050493;28;20041;-81
2022/09/17 03:36:29;;;;;;;3.65;2.58;;;;;;;20.08;71.03;98611.75;5050866;28;20564;-81
2022/09/17 03:38:56;;;;;;;3.17;2.00;;;;;;;20.07;70.98;98593.13;5051222;28;20414;-80
2022/09/17 03:41:21;;;;;;;1.70;1.60;;;;;;;20.12;71.60;98607.03;5051272;28;20108;-80
2022/09/17 03:43:47;;;;;;;0.75;0.75;;;;;;;20.08;72.24;98605.53;5049953;28;20142;-81
2022/09/17 03:46:12;;;;;;;1.58;1.02;;;;;;;20.02;72.40;98610.34;5051429;28;20434;-81
2022/09/17 03:48:38;;;;;;;2.22;1.55;;;;;;;20.15;71.15;98596.09;5050560;28;20041;-81
2022/09/17 03:51:05;;;;;;;0.57;0.57;;;;;;;20.12;71.25;98607.88;5050414;28;20055;-81
2022/09/17 03:53:31;;;;;;;9.75;0.95;;;;;;;19.89;71.87;98587.25;5051544;28;20055;-81
2022/09/17 03:56:02;;;;;;;1.90;1.52;;;;;;;19.90;71.26;98565.72;5050869;28;20033;-80
2022/09/17 03:58:29;;;;;;;1.70;0.85;;;;;;;19.89;71.82;98579.22;5050535;28;20127;-80
2022/09/17 04:00:56;;;;;;;0.73;0.73;;;;;;;20.13;70.84;98590.00;5050845;28;20025;-81
2022/09/17 04:03:23;;;;;;;7.78;1.70;;;;;;;20.13;70.77;98584.66;5050450;28;20033;-81
2022/09/17 04:05:49;;;;;;;0.73;0.73;;;;;;;20.07;71.11;98596.66;5043676;28;20071;-81
2022/09/17 04:08:14;;;;;;;1.63;1.42;;;;;;;20.06;70.30;98597.59;5050931;28;20503;-81
2022/09/17 04:10:40;;;;;;;2.20;2.00;;;;;;;19.76;71.33;98601.47;5032394;28;20407;-81
2022/09/17 04:13:05;;;;;;;1.45;1.38;;;;;;;19.70;71.15;98575.13;5050466;28;20032;-81
2022/09/17 04:15:30;;;;;;;1.55;1.45;;;;;;;19.58;71.12;98563.47;5050531;28;20033;-81
2022/09/17 04:17:56;;;;;;;1.33;1.27;;;;;;;19.91;70.89;98604.91;5050445;28;20123;-81
2022/09/17 04:20:23;;;;;;;1.42;1.13;;;;;;;19.80;71.60;98605.69;5049740;28;20035;-81
2022/09/17 04:22:49;;;;;;;1.90;1.45;;;;;;;19.96;70.98;98607.28;5039511;28;20057;-80
2022/09/17 04:25:14;;;;;;;1.48;1.38;;;;;;;19.94;70.88;98588.66;5050502;28;20067;-80
2022/09/17 04:27:39;;;;;;;1.33;1.23;;;;;;;19.95;71.58;98592.16;5050224;28;20071;-81
2022/09/17 04:30:06;;;;;;;2.40;2.08;;;;;;;19.86;71.46;98569.59;5050380;28;20036;-81
2022/09/17 04:32:31;;;;;;;0.77;0.77;;;;;;;19.76;72.69;98579.22;5046645;28;20037;-79
2022/09/17 04:34:57;;;;;;;9.52;2.72;;;;;;;19.93;72.71;98602.97;5042144;28;20029;-79
2022/09/17 04:37:24;;;;;;;6.03;1.95;;;;;;;19.62;73.87;98588.22;5030864;28;20030;-79
2022/09/17 04:39:50;;;;;;;2.40;2.20;;;;;;;19.83;73.71;98604.59;5047269;28;20037;-78
2022/09/17 04:42:15;;;;;;;7.32;2.42;;;;;;;19.46;74.21;98556.31;5050211;28;20048;-79
2022/09/17 04:44:41;;;;;;;9.00;3.22;;;;;;;19.59;73.81;98535.78;5050285;28;20094;-79
2022/09/17 04:47:06;;;;;;;3.63;2.50;;;;;;;19.63;73.78;98553.31;5050300;28;20033;-79
2022/09/17 04:49:32;;;;;;;1.45;1.17;;;;;;;19.70;72.72;98548.38;5049338;28;20052;-77
2022/09/17 04:51:57;;;;;;;0.77;0.77;;;;;;;19.91;71.61;98572.81;5043589;28;20037;-78
2022/09/17 04:54:23;;;;;;;1.33;1.02;;;;;;;20.22;70.66;98589.34;5036716;28;20120;-78
2022/09/17 04:56:49;;;;;;;0.75;0.70;;;;;;;20.17;70.50;98578.97;5038282;28;20471;-79
2022/09/17 04:59:14;;;;;;;2.90;1.48;;;;;;;20.08;70.74;98562.69;5046080;28;20033;-79
2022/09/17 05:01:42;;;;;;;19.08;2.25;;;;;;;20.24;71.07;98603.47;5045714;28;20021;-79
2022/09/17 05:04:07;;;;;;;4.75;2.05;;;;;;;20.19;71.34;98593.09;5040206;28;20129;-79
2022/09/17 05:06:33;;;;;;;1.58;1.48;;;;;;;19.89;71.90;98560.50;5037985;28;20112;-78
2022/09/17 05:08:58;;;;;;;5.03;2.05;;;;;;;19.82;72.10;98579.66;5046424;28;20067;-79
2022/09/17 05:11:24;;;;;;;3.20;2.50;;;;;;;19.87;71.93;98597.22;5047118;28;20022;-79
2022/09/17 05:13:50;;;;;;;5.20;1.45;;;;;;;19.77;73.11;98610.38;5050190;28;20036;-80
2022/09/17 05:16:15;;;;;;;2.58;2.03;;;;;;;19.65;73.17;98588.84;5044833;28;20033;-79
2022/09/17 05:18:41;;;;;;;2.30;2.10;;;;;;;19.80;73.04;98589.63;5047507;28;20392;-79
2022/09/17 05:21:07;;;;;;;2.92;2.63;;;;;;;20.29;72.28;98621.88;5045691;28;20018;-79
2022/09/17 05:23:33;;;;;;;5.22;1.60;;;;;;;20.45;71.08;98579.63;5042545;28;20029;-79
2022/09/17 05:25:59;;;;;;;4.28;2.28;;;;;;;20.92;69.89;98601.22;5031588;28;20090;-80
2022/09/17 05:28:25;;;;;;;1.45;1.35;;;;;;;21.01;68.69;98589.78;5053942;28;20044;-79
2022/09/17 05:30:51;;;;;;;5.82;2.75;;;;;;;20.69;69.04;98597.56;5045158;28;20031;-79
2022/09/17 05:33:18;;;;;;;2.28;1.55;;;;;;;20.47;70.75;98604.47;5046202;28;20491;-79
2022/09/17 05:35:44;;;;;;;2.00;1.42;;;;;;;20.98;69.63;98602.59;5034540;28;20384;-80
2022/09/17 05:38:09;;;;;;;10.90;2.40;;;;;;;21.37;68.20;98613.91;5044441;28;20037;-80
2022/09/17 05:40:37;;;;;;;0.47;0.47;;;;;;;21.77;66.96;98621.59;5040703;28;20516;-81
2022/09/17 05:43:05;;;;;;;0.77;0.77;;;;;;;21.80;66.67;98605.25;5037530;28;20025;-79
2022/09/17 05:45:32;;;;;;;1.40;1.20;;;;;;;22.06;66.18;98613.91;5033253;28;20029;-81
2022/09/17 05:47:59;;;;;;;0.77;0.77;;;;;;;21.85;66.39;98621.84;5044543;28;20029;-81
2022/09/17 05:50:27;;;;;;;0.40;0.40;;;;;;;22.08;65.62;98633.44;5051970;28;20475;-79
2022/09/17 05:52:53;;;;;;;0.63;0.63;;;;;;;21.80;66.50;98650.88;5041504;28;20468;-79
2022/09/17 05:55:21;;;;;;;1.02;0.95;;;;;;;21.66;66.80;98649.25;5053466;28;20037;-79
2022/09/17 05:57:49;;;;;;;2.17;1.85;;;;;;;21.39;67.64;98614.66;5044983;28;20021;-80
2022/09/17 06:00:15;;;;;;;3.38;1.05;;;;;;;21.48;68.29;98626.50;5050170;28;20029;-81
2022/09/17 06:02:41;;;;;;;1.70;1.60;;;;;;;21.38;67.62;98626.34;5046252;28;20041;-80
2022/09/17 06:05:07;;;;;;;0.65;0.65;;;;;;;21.82;67.57;98625.59;5052983;28;20072;-81
2022/09/17 06:07:37;;;;;;;1.30;1.17;;;;;;;22.33;65.08;98647.63;5051648;28;20029;-81
2022/09/17 06:10:04;;;;;;;1.67;1.58;;;;;;;22.03;65.53;98638.34;5033353;28;20029;-80
2022/09/17 06:12:30;;;;;;;1.42;1.33;;;;;;;22.08;66.26;98680.94;5039159;28;20115;-80
2022/09/17 06:14:55;;;;;;;1.25;1.15;;;;;;;22.09;66.16;98663.81;5051615;28;20052;-80
2022/09/17 06:17:21;;;;;;;2.22;1.35;;;;;;;22.65;65.07;98654.94;5046111;28;20402;-80
2022/09/17 06:19:46;;;;;;;2.35;1.13;;;;;;;23.08;62.71;98672.91;5050752;28;20069;-81
2022/09/17 06:22:12;;;;;;;2.45;1.75;;;;;;;23.23;61.74;98668.97;5040926;28;20044;-80
2022/09/17 06:24:37;;;;;;;0.25;0.25;;;;;;;23.76;59.97;98676.16;5049391;28;20572;-80
2022/09/17 06:27:03;;;;;;;0.30;0.30;;;;;;;23.58;60.83;98673.19;5048849;28;20541;-81
2022/09/17 06:29:29;;;;;;;0.77;0.57;;;;;;;23.81;59.60;98675.75;5041729;28;20103;-81
2022/09/17 06:31:54;;;;;;;0.90;0.80;;;;;;;24.20;57.27;98673.28;5052834;28;20112;-80
2022/09/17 06:34:20;;;;;;;2.45;2.10;;;;;;;24.84;56.37;98665.91;5052347;28;20025;-80
2022/09/17 06:36:48;;;;;;;3.78;2.85;;;;;;;24.70;56.53;98642.00;5050037;28;20483;-80
2022/09/17 06:39:14;;;;;;;0.73;0.73;;;;;;;24.75;55.95;98680.22;5048411;28;20075;-81
2022/09/17 06:41:42;;;;;;;0.32;0.32;;;;;;;24.38;55.81;98672.69;5041206;28;20029;-81
2022/09/17 06:44:07;;;;;;;2.58;2.17;;;;;;;24.30;56.64;98667.97;5047607;28;20055;-81
2022/09/17 06:46:33;;;;;;;2.38;0.90;;;;;;;24.51;56.37;98694.00;5045518;28;20108;-81
2022/09/17 06:48:58;;;;;;;4.40;1.95;;;;;;;23.96;58.26;98670.94;5044055;28;20112;-83
2022/09/17 06:51:24;;;;;;;1.08;0.70;;;;;;;24.33;57.56;98697.34;5042440;28;20034;-82
2022/09/17 06:53:49;;;;;;;1.33;1.25;;;;;;;24.27;57.56;98684.41;5043740;28;20052;-83
2022/09/17 06:56:15;;;;;;;0.30;0.30;;;;;;;24.47;57.67;98685.34;5020115;28;20037;-84
2022/09/17 06:58:41;;;;;;;10.45;1.23;;;;;;;24.55;56.16;98707.06;5042847;28;20029;-82
2022/09/17 07:01:09;;;;;;;1.67;1.23;;;;;;;24.23;57.04;98683.81;5041974;28;20059;-82
2022/09/17 07:03:34;;;;;;;1.02;0.75;;;;;;;24.29;58.04;98690.50;5041301;28;20061;-82
2022/09/17 07:06:00;;;;;;;1.20;1.10;;;;;;;24.74;56.11;98675.81;5041798;28;20052;-83
2022/09/17 07:08:25;;;;;;;0.38;0.38;;;;;;;25.25;54.31;98681.97;5041362;28;20029;-86
2022/09/17 07:10:54;;;;;;;13.02;0.73;;;;;;;25.34;54.20;98678.47;5041023;28;20053;-82
2022/09/17 07:13:20;;;;;;;1.55;1.45;;;;;;;25.48;55.57;98664.53;5040715;28;20119;-83
2022/09/17 07:15:56;;;;;;;1.00;0.98;;;;;;;25.39;53.40;98665.38;5044001;28;20443;-85
2022/09/17 07:18:22;;;;;;;13.10;1.20;;;;;;;24.94;53.98;98649.72;5043548;28;20036;-82
2022/09/17 07:20:59;;;;;;;0.45;0.45;;;;;;;24.83;55.43;98680.38;5037885;28;20483;-81
2022/09/17 07:23:26;;;;;;;3.20;1.08;;;;;;;24.94;54.56;98676.69;5034676;28;20033;-81
2022/09/17 07:25:56;;;;;;;1.27;1.15;;;;;;;25.27;54.07;98671.88;5042024;28;20487;-83
2022/09/17 07:28:23;;;;;;;3.03;1.65;;;;;;;25.48;52.59;98678.03;5046029;28;20040;-85
2022/09/17 07:30:50;;;;;;;10.02;0.45;;;;;;;25.57;52.27;98656.59;5039318;28;20027;-83
2022/09/17 07:33:24;;;;;;;1.65;1.38;;;;;;;25.50;53.38;98659.00;5047419;28;20535;-84
2022/09/17 07:35:57;;;;;;;4.22;2.42;;;;;;;25.61;51.67;98614.78;5047511;28;20100;-83
2022/09/17 07:38:24;;;;;;;3.40;2.25;;;;;;;26.45;51.25;98622.91;5036419;28;20051;-84
2022/09/17 07:41:13;;;;;;;0.40;0.30;;;;;;;27.08;47.76;98620.38;5044080;28;20053;-82
2022/09/17 07:43:40;;;;;;;1.80;0.93;;;;;;;27.24;47.35;98614.28;5039771;28;20175;-80
2022/09/17 07:46:07;;;;;;;1.20;1.10;;;;;;;27.46;48.03;98640.88;5043148;28;20035;-86
2022/09/17 07:48:33;;;;;;;3.30;0.98;;;;;;;27.27;48.38;98624.78;5036113;28;20581;-82
2022/09/17 07:50:58;;;;;;;1.88;1.55;;;;;;;27.22;49.12;98567.53;5029335;28;20061;-82
2022/09/17 07:53:24;;;;;;;3.80;2.30;;;;;;;27.98;47.74;98640.09;5044490;28;20060;-82
2022/09/17 07:56:08;;;;;;;1.58;1.45;;;;;;;28.44;46.88;98619.97;5046436;28;20009;-83
2022/09/17 07:58:35;;;;;;;10.95;3.50;;;;;;;28.65;46.86;98606.84;5020295;28;20458;-84
2022/09/17 08:01:08;;;;;;;6.97;2.45;;;;;;;29.03;44.30;98609.16;5033335;28;20021;-82
2022/09/17 08:03:35;;;;;;;2.72;1.73;;;;;;;29.76;42.99;98637.34;5050608;28;20025;-82
2022/09/17 08:06:05;;;;;;;2.33;1.40;;;;;;;29.77;42.83;98653.50;5046171;28;20013;-82
2022/09/17 08:08:32;;;;;;;19.60;2.88;;;;;;;29.87;44.53;98636.19;5039539;28;20108;-82
2022/09/17 08:11:02;;;;;;;1.38;0.90;;;;;;;30.26;39.08;98625.38;5033756;28;20025;-82
2022/09/17 08:13:28;;;;;;;4.53;1.35;;;;;;;29.85;41.89;98600.19;5042054;28;20399;-82
2022/09/17 08:16:01;;;;;;;2.22;1.70;;;;;;;29.77;41.33;98615.44;5047089;28;20029;-81
2022/09/17 08:18:27;;;;;;;6.88;1.40;;;;;;;30.03;40.67;98614.41;5039540;28;20033;-81
2022/09/17 08:21:04;;;;;;;0.85;0.70;;;;;;;30.42;38.95;98632.66;5033815;28;20109;-82
2022/09/17 08:23:30;;;;;;;1.40;0.68;;;;;;;30.25;39.33;98617.41;5049206;28;20116;-82
2022/09/17 08:25:58;;;;;;;1.08;1.00;;;;;;;29.87;40.25;98609.00;5046336;28;20036;-81
2022/09/17 08:28:25;;;;;;;0.13;0.13;;;;;;;29.50;41.56;98618.53;5040120;28;20110;-81
2022/09/17 08:30:52;;;;;;;1.25;0.43;;;;;;;29.40;40.96;98646.72;5034632;28;20139;-83
2022/09/17 08:33:18;;;;;;;1.38;1.27;;;;;;;29.28;40.91;98621.75;5033935;28;20037;-83
2022/09/17 08:35:53;;;;;;;0.55;0.50;;;;;;;29.33;40.44;98585.94;5046000;28;20038;-83
2022/09/17 08:38:19;;;;;;;2.28;2.08;;;;;;;29.73;40.00;98607.81;5049021;28;20025;-83
2022/09/17 08:41:10;;;;;;;6.25;1.55;;;;;;;29.72;40.62;98609.69;5053468;28;20032;-82
2022/09/17 08:43:51;;;;;;;3.03;1.35;;;;;;;29.38;41.08;98629.75;5043371;28;20064;-82
2022/09/17 08:46:16;;;;;;;2.60;1.55;;;;;;;28.93;42.47;98617.44;5037224;28;20025;-82
2022/09/17 08:49:27;;;;;;;0.32;0.32;;;;;;;29.11;40.68;98601.00;5046953;28;20430;-83
2022/09/17 08:52:28;;;;;;;4.60;3.20;;;;;;;29.04;40.46;98608.13;5041707;28;20037;-82
2022/09/17 08:55:02;;;;;;;1.45;1.20;;;;;;;29.48;39.83;98617.88;5028694;28;20047;-84
2022/09/17 08:58:15;;;;;;;0.50;0.50;;;;;;;29.32;42.21;98613.25;5046702;28;20029;-83
2022/09/17 09:01:05;;;;;;;1.83;1.38;;;;;;;28.89;41.75;98594.38;4975597;28;20061;-82
2022/09/17 09:04:05;;;;;;;1.60;1.17;;;;;;;28.73;43.62;98563.50;5035087;28;20045;-85
2022/09/17 09:06:43;;;;;;;1.02;0.93;;;;;;;28.98;41.30;98568.94;5047223;28;20514;-81
2022/09/17 09:09:15;;;;;;;1.17;0.82;;;;;;;29.17;42.30;98565.03;5048283;28;20589;-84
2022/09/17 09:11:41;;;;;;;4.85;2.80;;;;;;;28.87;40.31;98562.00;5046742;28;20032;-83
2022/09/17 09:14:12;;;;;;;0.80;0.80;;;;;;;29.27;40.95;98587.50;5038857;28;20546;-83
2022/09/17 09:16:41;;;;;;;0.43;0.43;;;;;;;29.63;39.60;98553.66;5038902;28;20035;-84
2022/09/17 09:19:23;;;;;;;0.47;0.47;;;;;;;29.50;39.92;98553.34;5043553;28;20446;-83
2022/09/17 09:22:26;;;;;;;0.82;0.55;;;;;;;29.42;40.36;98551.50;5040437;28;20098;-82
2022/09/17 09:25:17;;;;;;;1.25;0.73;;;;;;;29.51;39.58;98552.34;5033694;28;20068;-84
2022/09/17 09:28:02;;;;;;;0.22;0.22;;;;;;;29.76;38.99;98544.97;5042025;28;20116;-83
2022/09/17 09:30:39;;;;;;;;;;;;;;;30.08;39.24;98530.44;5051732;28;20035;-85
2022/09/17 09:33:17;;;;;;;3.95;0.82;;;;;;;30.26;38.13;98515.75;5042170;28;20399;-83
2022/09/17 09:35:44;;;;;;;2.03;1.20;;;;;;;30.13;38.88;98517.16;5035353;28;20057;-83
2022/09/17 09:38:31;;;;;;;2.22;1.88;;;;;;;30.33;38.68;98533.03;5041281;28;20033;-83
2022/09/17 09:40:57;;;;;;;0.82;0.80;;;;;;;30.30;37.52;98519.81;5034844;28;20105;-83
2022/09/17 09:43:43;;;;;;;5.82;1.50;;;;;;;30.20;38.32;98508.28;5047685;28;20032;-82
2022/09/17 09:46:38;;;;;;;0.68;0.65;;;;;;;29.85;37.77;98505.06;5047804;28;20030;-83
2022/09/17 09:49:24;;;;;;;0.75;0.63;;;;;;;29.83;38.30;98507.97;5042370;28;20041;-84
2022/09/17 09:52:10;;;;;;;0.88;0.85;;;;;;;29.80;38.07;98459.41;5040113;28;20029;-88
2022/09/17 09:54:56;;;;;;;0.50;0.40;;;;;;;30.31;38.19;98502.47;5024435;28;20136;-83
2022/09/17 09:57:36;;;;;;;1.33;1.10;;;;;;;30.20;37.51;98486.53;5043900;28;20095;-82
2022/09/17 10:00:33;;;;;;;0.95;0.88;;;;;;;30.24;38.39;98507.75;5036120;28;20037;-83
2022/09/17 10:03:05;;;;;;;1.38;1.08;;;;;;;30.44;37.97;98508.19;5034042;28;20033;-81
2022/09/17 10:05:31;;;;;;;4.75;1.95;;;;;;;30.24;37.50;98477.00;5051526;28;20036;-81
2022/09/17 10:07:56;;;;;;;0.45;0.45;;;;;;;30.11;37.48;98455.84;5043694;28;20087;-83
2022/09/17 10:10:22;;;;;;;1.55;1.45;;;;;;;30.46;37.25;98462.63;5034373;28;20041;-84
2022/09/17 10:12:47;;;;;;;0.40;0.40;;;;;;;30.50;36.52;98438.63;5044168;28;20041;-83
2022/09/17 10:15:27;;;;;;;1.85;1.50;;;;;;;30.56;37.79;98459.66;5035054;28;20488;-82
2022/09/17 10:18:15;;;;;;;0.98;0.80;;;;;;;30.53;36.48;98469.00;5037477;28;20060;-82
2022/09/17 10:20:57;;;;;;;1.45;0.90;;;;;;;30.75;37.69;98463.75;5035504;28;20021;-84
2022/09/17 10:23:26;;;;;;;2.78;2.00;;;;;;;30.65;35.79;98453.13;5048689;28;20033;-85
2022/09/17 10:25:54;;;;;;;9.57;3.88;;;;;;;30.56;35.56;98431.63;5050471;28;20487;-85
2022/09/17 10:28:44;;;;;;;0.40;0.40;;;;;;;30.67;36.05;98470.09;5033909;28;20029;-84
2022/09/17 10:31:10;;;;;;;2.05;1.00;;;;;;;30.78;35.63;98466.09;5031140;28;20040;-86
2022/09/17 10:33:54;;;;;;;1.05;0.63;;;;;;;30.70;36.51;98479.78;5038373;28;20438;-83
2022/09/17 10:36:44;;;;;;;8.60;2.67;;;;;;;30.97;35.35;98472.97;5046101;28;20076;-84
2022/09/17 10:39:36;;;;;;;3.35;3.05;;;;;;;31.39;35.50;98490.59;5046378;28;20056;-83
2022/09/17 10:42:16;;;;;;;2.30;1.35;;;;;;;31.37;35.75;98494.53;5042993;28;20025;-84
2022/09/17 10:45:01;;;;;;;0.65;0.65;;;;;;;31.39;35.52;98476.16;5051105;28;20457;-84
2022/09/17 10:47:35;;;;;;;1.23;0.60;;;;;;;30.81;36.32;98464.91;5044377;28;20045;-84
2022/09/17 10:50:03;;;;;;;0.20;0.20;;;;;;;30.77;36.95;98507.97;5032077;28;20050;-84
2022/09/17 10:52:31;;;;;;;0.43;0.43;;;;;;;30.05;38.30;98491.91;5043611;28;20117;-84
2022/09/17 10:55:14;;;;;;;1.95;1.00;;;;;;;30.05;38.05;98517.22;5032446;28;20091;-84
2022/09/17 10:57:45;;;;;;;2.10;1.70;;;;;;;30.34;38.56;98513.00;5043439;28;20028;-85
2022/09/17 11:00:20;;;;;;;1.63;1.45;;;;;;;30.07;37.57;98511.59;5031619;28;20033;-85
2022/09/17 11:03:02;;;;;;;20.40;1.60;;;;;;;29.63;38.42;98540.09;5037357;28;20030;-84
2022/09/17 11:05:39;;;;;;;7.38;2.65;;;;;;;29.90;39.35;98543.44;5042126;28;20295;-84
2022/09/17 11:08:33;;;;;;;4.75;2.05;;;;;;;29.86;37.68;98539.34;5051955;28;20039;-85
2022/09/17 11:11:08;;;;;;;3.20;2.22;;;;;;;29.59;39.36;98544.16;5045904;28;20041;-84
2022/09/17 11:13:47;;;;;;;10.07;3.20;;;;;;;29.35;39.79;98553.19;5051723;28;20029;-84
2022/09/17 11:16:40;;;;;;;1.73;1.50;;;;;;;28.81;41.55;98529.22;5051823;28;20537;-84
2022/09/17 11:19:23;;;;;;;6.22;5.47;;;;;;;28.48;43.21;98597.78;5051496;28;20028;-84
2022/09/17 11:21:55;;;;;;;1.70;1.60;;;;;;;27.95;44.18;98620.56;5051611;28;20029;-83
2022/09/17 11:24:52;;;;;;;11.00;2.13;;;;;;;27.79;45.24;98618.59;5051208;28;20457;-84
2022/09/17 11:27:29;;;;;;;6.75;0.93;;;;;;;27.41;46.79;98631.53;5051216;28;20032;-84
2022/09/17 11:30:03;;;;;;;0.30;0.30;;;;;;;26.75;52.24;98731.78;5048980;28;20506;-84
2022/09/17 11:33:04;;;;;;;2.65;2.22;;;;;;;24.72;63.36;98754.13;5051163;28;20040;-82
2022/09/17 11:35:37;;;;;;;9.48;1.15;;;;;;;23.32;76.11;98807.22;5038653;28;20056;-82
2022/09/17 11:38:19;;;;;;;5.82;3.90;;;;;;;22.33;81.91;98752.38;5033995;28;20107;-84
2022/09/17 11:40:59;;;;;;;1.02;0.98;;;;;;;22.14;86.80;98772.59;5030770;28;20535;-85
2022/09/17 11:43:29;;;;;;;0.60;0.60;;;;;;;22.17;88.96;98741.97;5032050;28;20041;-82
2022/09/17 11:46:08;;;;;;;2.45;2.05;;;;;;;22.10;90.43;98682.50;5048883;28;20028;-85
2022/09/17 11:48:55;;;;;;;3.40;1.35;;;;;;;22.26;89.12;98681.28;5037658;28;20598;-86
2022/09/17 11:51:26;;;;;;;0.43;0.43;;;;;;;22.50;88.53;98683.88;5045541;28;20037;-84
2022/09/17 11:53:59;;;;;;;0.13;0.13;;;;;;;22.63;89.66;98690.00;5051010;28;20065;-83
2022/09/17 11:56:30;;;;;;;0.88;0.85;;;;;;;22.69;85.26;98676.06;5050881;28;20068;-83
2022/09/17 11:59:22;;;;;;;1.40;1.33;;;;;;;23.36;87.92;98687.59;5049936;28;20052;-82